createdAt,value
2023-05-21T00:02:19.858Z,1.98
2023-05-21T00:04:47.508Z,2.90
2023-05-21T00:07:15.226Z,1.58
2023-05-21T00:09:41.873Z,3.25
2023-05-21T00:12:09.047Z,1.83
2023-05-21T00:14:35.754Z,3.22
2023-05-21T00:17:02.234Z,3.28
2023-05-21T00:19:28.817Z,2.47
2023-05-21T00:21:55.988Z,3.03
2023-05-21T00:24:22.517Z,6.30
2023-05-21T00:26:48.942Z,5.07
2023-05-21T00:29:15.680Z,6.22
2023-05-21T00:31:42.200Z,7.28
2023-05-21T00:34:08.681Z,7.75
2023-05-21T00:36:35.556Z,4.38
2023-05-21T00:39:02.564Z,6.07
2023-05-21T00:41:30.215Z,3.90
2023-05-21T00:43:57.234Z,4.70
2023-05-21T00:46:24.150Z,6.47
2023-05-21T00:48:52.007Z,2.70
2023-05-21T00:51:21.621Z,8.30
2023-05-21T00:53:52.544Z,3.90
2023-05-21T00:56:22.688Z,6.63
2023-05-21T00:58:51.852Z,1.90
2023-05-21T01:01:19.362Z,2.58
2023-05-21T01:03:48.702Z,4.45
2023-05-21T01:06:15.998Z,5.68
2023-05-21T01:08:42.557Z,23.45
2023-05-21T01:11:10.626Z,6.60
2023-05-21T01:13:39.934Z,5.25
2023-05-21T01:16:08.630Z,3.03
2023-05-21T01:18:43.133Z,4.88
2023-05-21T01:21:11.491Z,4.13
2023-05-21T01:23:38.163Z,11.15
2023-05-21T01:26:04.643Z,5.38
2023-05-21T01:28:32.952Z,4.68
2023-05-21T01:31:12.224Z,3.72
2023-05-21T01:33:49.072Z,5.75
2023-05-21T01:36:24.086Z,5.60
2023-05-21T01:39:02.100Z,6.13
2023-05-21T01:41:33.402Z,4.95
2023-05-21T01:44:01.117Z,5.53
2023-05-21T01:46:30.730Z,4.20
2023-05-21T01:48:57.646Z,9.20
2023-05-21T01:51:24.697Z,11.70
2023-05-21T01:53:51.384Z,6.10
2023-05-21T01:56:17.882Z,6.63
2023-05-21T01:58:44.448Z,6.53
2023-05-21T02:01:11.981Z,2.67
2023-05-21T02:03:38.730Z,4.78
2023-05-21T02:06:05.424Z,4.18
2023-05-21T02:08:31.898Z,2.78
2023-05-21T02:10:58.336Z,6.88
2023-05-21T02:13:26.239Z,6.68
2023-05-21T02:15:54.800Z,2.88
2023-05-21T02:18:22.081Z,9.20
2023-05-21T02:20:48.562Z,6.57
2023-05-21T02:23:15.138Z,10.05
2023-05-21T02:25:41.580Z,2.50
2023-05-21T02:28:08.142Z,7.13
2023-05-21T02:30:35.214Z,4.57
2023-05-21T02:33:02.947Z,6.35
2023-05-21T02:35:29.562Z,6.07
2023-05-21T02:37:59.095Z,8.57
2023-05-21T02:40:25.588Z,8.40
2023-05-21T02:42:52.046Z,7.32
2023-05-21T02:45:18.547Z,3.78
2023-05-21T02:47:45.083Z,8.48
2023-05-21T02:50:13.564Z,7.25
2023-05-21T02:52:40.085Z,8.82
2023-05-21T02:55:07.102Z,8.75
2023-05-21T02:57:33.668Z,5.78
2023-05-21T03:00:00.090Z,10.45
2023-05-21T03:02:26.609Z,6.32
2023-05-21T03:04:53.199Z,10.55
2023-05-21T03:07:19.772Z,9.93
2023-05-21T03:09:46.564Z,8.93
2023-05-21T03:12:13.123Z,7.50
2023-05-21T03:14:39.584Z,6.53
2023-05-21T03:17:06.433Z,11.38
2023-05-21T03:19:35.769Z,7.45
2023-05-21T03:22:03.677Z,7.38
2023-05-21T03:24:30.812Z,10.70
2023-05-21T03:26:57.556Z,7.78
2023-05-21T03:29:24.060Z,8.40
2023-05-21T03:31:52.883Z,12.60
2023-05-21T03:34:20.117Z,6.45
2023-05-21T03:36:47.890Z,8.18
2023-05-21T03:39:14.556Z,11.02
2023-05-21T03:41:41.217Z,8.30
2023-05-21T03:44:07.789Z,5.13
2023-05-21T03:46:34.400Z,7.53
2023-05-21T03:49:00.959Z,11.10
2023-05-21T03:51:27.707Z,12.50
2023-05-21T03:53:54.202Z,10.45
2023-05-21T03:56:21.562Z,8.88
2023-05-21T03:58:48.070Z,12.70
2023-05-21T04:01:14.597Z,11.60
2023-05-21T04:03:41.324Z,7.97
2023-05-21T04:06:10.109Z,12.27
2023-05-21T04:08:37.965Z,8.50
2023-05-21T04:11:04.620Z,9.07
2023-05-21T04:13:31.058Z,6.75
2023-05-21T04:15:57.562Z,11.05
2023-05-21T04:18:25.890Z,8.55
2023-05-21T04:20:52.689Z,7.10
2023-05-21T04:23:19.153Z,5.40
2023-05-21T04:25:45.621Z,10.57
2023-05-21T04:28:12.065Z,9.18
2023-05-21T04:30:38.485Z,14.38
2023-05-21T04:33:05.025Z,8.07
2023-05-21T04:35:31.513Z,6.30
2023-05-21T04:37:57.962Z,11.00
2023-05-21T04:40:24.471Z,10.82
2023-05-21T04:42:51.436Z,9.43
2023-05-21T04:45:18.018Z,10.00
2023-05-21T04:47:44.531Z,10.15
2023-05-21T04:50:10.996Z,6.47
2023-05-21T04:52:40.219Z,11.60
2023-05-21T04:55:09.967Z,10.50
2023-05-21T04:57:36.986Z,11.95
2023-05-21T05:00:06.410Z,11.15
2023-05-21T05:02:32.897Z,14.85
2023-05-21T05:04:59.865Z,8.40
2023-05-21T05:07:26.680Z,10.90
2023-05-21T05:09:53.096Z,12.48
2023-05-21T05:12:19.605Z,15.90
2023-05-21T05:14:46.217Z,11.93
2023-05-21T05:17:15.447Z,12.18
2023-05-21T05:19:42.057Z,14.02
2023-05-21T05:22:08.501Z,6.13
2023-05-21T05:24:35.000Z,11.60
2023-05-21T05:27:01.526Z,16.55
2023-05-21T05:29:27.989Z,17.27
2023-05-21T05:31:54.396Z,13.98
2023-05-21T05:34:21.531Z,10.77
2023-05-21T05:36:48.037Z,15.65
2023-05-21T05:39:14.520Z,9.68
2023-05-21T05:41:41.070Z,12.77
2023-05-21T05:44:08.956Z,17.50
2023-05-21T05:46:37.353Z,12.27
2023-05-21T05:49:03.884Z,7.78
2023-05-21T05:51:30.650Z,7.70
2023-05-21T05:53:57.163Z,8.55
2023-05-21T05:56:23.731Z,15.93
2023-05-21T05:58:50.218Z,13.40
2023-05-21T06:01:17.857Z,11.57
2023-05-21T06:03:44.622Z,10.68
2023-05-21T06:06:11.945Z,14.48
2023-05-21T06:08:40.488Z,9.43
2023-05-21T06:11:07.080Z,13.15
2023-05-21T06:13:33.731Z,15.63
2023-05-21T06:16:00.194Z,12.52
2023-05-21T06:18:26.774Z,6.95
2023-05-21T06:20:53.215Z,12.55
2023-05-21T06:23:19.666Z,8.20
2023-05-21T06:25:46.130Z,7.25
2023-05-21T06:28:12.687Z,9.95
2023-05-21T06:30:39.150Z,10.90
2023-05-21T06:33:05.758Z,9.45
2023-05-21T06:35:34.762Z,8.07
2023-05-21T06:38:01.280Z,11.85
2023-05-21T06:40:27.996Z,14.80
2023-05-21T06:42:56.088Z,8.40
2023-05-21T06:45:23.258Z,10.35
2023-05-21T06:47:49.714Z,11.15
2023-05-21T06:50:16.572Z,17.60
2023-05-21T06:52:43.110Z,14.18
2023-05-21T06:55:09.685Z,6.53
2023-05-21T06:57:37.963Z,9.02
2023-05-21T07:00:05.670Z,13.10
2023-05-21T07:02:32.260Z,13.20
2023-05-21T07:04:58.934Z,10.10
2023-05-21T07:07:25.751Z,8.88
2023-05-21T07:09:52.208Z,8.38
2023-05-21T07:12:18.631Z,12.57
2023-05-21T07:14:45.052Z,10.93
2023-05-21T07:17:11.548Z,6.13
2023-05-21T07:19:38.244Z,12.77
2023-05-21T07:22:05.925Z,10.02
2023-05-21T07:24:32.342Z,9.50
2023-05-21T07:26:58.844Z,10.80
2023-05-21T07:29:25.280Z,7.55
2023-05-21T07:31:51.705Z,9.38
2023-05-21T07:34:18.123Z,11.52
2023-05-21T07:36:44.577Z,16.58
2023-05-21T07:39:11.487Z,11.02
2023-05-21T07:41:37.894Z,10.13
2023-05-21T07:44:04.564Z,10.30
2023-05-21T07:46:31.051Z,5.95
2023-05-21T07:48:57.515Z,10.60
2023-05-21T07:51:24.401Z,8.35
2023-05-21T07:53:51.140Z,14.35
2023-05-21T07:56:18.322Z,11.85
2023-05-21T07:58:45.761Z,9.27
2023-05-21T08:01:12.532Z,11.30
2023-05-21T08:03:39.270Z,7.05
2023-05-21T08:06:05.934Z,10.98
2023-05-21T08:08:32.643Z,10.43
2023-05-21T08:10:59.121Z,13.20
2023-05-21T08:13:25.873Z,11.07
2023-05-21T08:15:53.399Z,13.35
2023-05-21T08:18:20.228Z,8.93
2023-05-21T08:20:46.674Z,8.30
2023-05-21T08:23:13.136Z,4.80
2023-05-21T08:25:39.741Z,8.93
2023-05-21T08:28:07.150Z,8.93
2023-05-21T08:30:33.936Z,14.77
2023-05-21T08:33:01.156Z,11.98
2023-05-21T08:35:27.615Z,10.73
2023-05-21T08:37:54.053Z,11.70
2023-05-21T08:40:20.704Z,11.20
2023-05-21T08:42:49.109Z,10.07
2023-05-21T08:45:21.634Z,9.50
2023-05-21T08:47:52.033Z,11.38
2023-05-21T08:50:19.457Z,16.33
2023-05-21T08:52:45.976Z,7.18
2023-05-21T08:55:12.832Z,12.40
2023-05-21T08:57:43.690Z,11.07
2023-05-21T09:00:11.783Z,12.32
2023-05-21T09:02:43.672Z,7.28
2023-05-21T09:05:10.343Z,8.73
2023-05-21T09:07:46.525Z,12.95
2023-05-21T09:10:14.069Z,7.68
2023-05-21T09:12:40.551Z,9.60
2023-05-21T09:15:07.775Z,12.68
2023-05-21T09:17:34.462Z,10.13
2023-05-21T09:20:13.617Z,9.40
2023-05-21T09:22:42.565Z,13.37
2023-05-21T09:25:29.955Z,10.50
2023-05-21T09:27:56.986Z,11.25
2023-05-21T09:30:34.934Z,16.50
2023-05-21T09:33:03.406Z,14.10
2023-05-21T09:35:30.086Z,15.57
2023-05-21T09:37:57.649Z,7.97
2023-05-21T09:40:24.883Z,12.50
2023-05-21T09:42:53.146Z,19.33
2023-05-21T09:45:26.446Z,11.80
2023-05-21T09:47:54.936Z,9.20
2023-05-21T09:50:28.277Z,11.50
2023-05-21T09:52:55.559Z,9.98
2023-05-21T09:55:23.906Z,11.82
2023-05-21T09:57:51.054Z,12.98
2023-05-21T10:00:27.458Z,10.70
2023-05-21T10:02:56.065Z,10.90
2023-05-21T10:05:27.435Z,10.02
2023-05-21T10:07:59.993Z,9.32
2023-05-21T10:10:28.585Z,12.48
2023-05-21T10:13:04.148Z,12.27
2023-05-21T10:15:35.048Z,11.23
2023-05-21T10:18:02.426Z,8.45
2023-05-21T10:20:29.411Z,12.65
2023-05-21T10:22:56.801Z,10.18
2023-05-21T10:25:24.402Z,9.98
2023-05-21T10:27:51.729Z,8.18
2023-05-21T10:30:18.404Z,11.90
2023-05-21T10:32:47.736Z,14.07
2023-05-21T10:35:16.286Z,9.55
2023-05-21T10:37:46.335Z,10.45
2023-05-21T10:40:13.595Z,14.27
2023-05-21T10:43:13.383Z,13.18
2023-05-21T10:45:55.051Z,6.80
2023-05-21T10:48:58.480Z,13.25
2023-05-21T10:51:36.453Z,8.77
2023-05-21T10:54:21.062Z,14.35
2023-05-21T10:56:50.428Z,11.45
2023-05-21T10:59:25.790Z,11.10
2023-05-21T11:01:53.210Z,8.30
2023-05-21T11:04:23.830Z,8.13
2023-05-21T11:06:50.247Z,10.32
2023-05-21T11:09:17.236Z,13.15
2023-05-21T11:11:51.210Z,12.32
2023-05-21T11:14:38.949Z,12.05
2023-05-21T11:17:08.174Z,11.75
2023-05-21T11:19:38.470Z,11.27
2023-05-21T11:22:07.191Z,10.45
2023-05-21T11:24:37.355Z,12.30
2023-05-21T11:27:05.650Z,9.75
2023-05-21T11:29:44.264Z,9.00
2023-05-21T11:32:12.566Z,14.10
2023-05-21T11:34:46.398Z,9.25
2023-05-21T11:37:20.627Z,8.77
2023-05-21T11:39:48.179Z,13.05
2023-05-21T11:42:39.500Z,13.65
2023-05-21T11:45:06.399Z,12.63
2023-05-21T11:47:33.029Z,8.75
2023-05-21T11:50:01.205Z,18.15
2023-05-21T11:52:31.696Z,13.40
2023-05-21T11:54:59.697Z,10.40
2023-05-21T11:57:31.137Z,14.82
2023-05-21T11:59:59.096Z,9.80
2023-05-21T12:02:33.197Z,9.55
2023-05-21T12:05:00.473Z,9.57
2023-05-21T12:07:30.244Z,9.38
2023-05-21T12:09:57.751Z,13.93
2023-05-21T12:12:26.328Z,10.02
2023-05-21T12:14:54.884Z,9.23
2023-05-21T12:17:23.097Z,12.15
2023-05-21T12:19:56.518Z,8.65
2023-05-21T12:22:24.468Z,8.93
2023-05-21T12:24:51.536Z,11.35
2023-05-21T12:27:18.328Z,12.30
2023-05-21T12:29:46.176Z,12.85
2023-05-21T12:32:14.555Z,7.05
2023-05-21T12:34:46.958Z,9.02
2023-05-21T12:37:27.457Z,18.40
2023-05-21T12:39:55.786Z,15.05
2023-05-21T12:42:35.793Z,18.25
2023-05-21T12:45:07.322Z,13.43
2023-05-21T12:47:34.194Z,9.93
2023-05-21T12:50:02.083Z,10.07
2023-05-21T12:52:29.375Z,9.18
2023-05-21T12:54:57.087Z,10.13
2023-05-21T12:57:34.661Z,17.58
2023-05-21T13:00:01.872Z,19.80
2023-05-21T13:02:38.399Z,9.73
2023-05-21T13:05:09.808Z,11.43
2023-05-21T13:07:38.449Z,13.73
2023-05-21T13:10:07.087Z,7.80
2023-05-21T13:12:34.116Z,9.68
2023-05-21T13:15:02.005Z,12.40
2023-05-21T13:17:29.090Z,10.65
2023-05-21T13:20:07.296Z,10.48
2023-05-21T13:22:33.742Z,9.13
2023-05-21T13:25:00.188Z,18.23
2023-05-21T13:27:26.607Z,19.42
2023-05-21T13:29:53.068Z,16.83
2023-05-21T13:32:19.569Z,12.45
2023-05-21T13:34:46.343Z,7.93
2023-05-21T13:37:12.753Z,16.83
2023-05-21T13:39:39.313Z,15.85
2023-05-21T13:42:06.173Z,11.18
2023-05-21T13:44:36.063Z,9.45
2023-05-21T13:47:03.815Z,11.27
2023-05-21T13:49:30.434Z,13.23
2023-05-21T13:51:58.075Z,10.52
2023-05-21T13:54:24.623Z,13.45
2023-05-21T13:56:51.090Z,15.20
2023-05-21T13:59:17.560Z,10.48
2023-05-21T14:01:47.958Z,11.98
2023-05-21T14:04:14.403Z,14.10
2023-05-21T14:06:41.168Z,16.45
2023-05-21T14:09:07.999Z,9.95
2023-05-21T14:11:35.064Z,12.02
2023-05-21T14:14:02.880Z,8.85
2023-05-21T14:16:29.465Z,14.57
2023-05-21T14:18:57.162Z,10.48
2023-05-21T14:21:25.038Z,12.50
2023-05-21T14:23:52.193Z,17.30
2023-05-21T14:26:19.120Z,13.57
2023-05-21T14:28:46.249Z,19.02
2023-05-21T14:31:12.824Z,14.52
2023-05-21T14:33:39.315Z,14.90
2023-05-21T14:36:06.014Z,14.45
2023-05-21T14:38:32.552Z,16.85
2023-05-21T14:40:59.014Z,11.05
2023-05-21T14:43:25.523Z,10.43
2023-05-21T14:45:52.176Z,12.98
2023-05-21T14:48:22.646Z,17.63
2023-05-21T14:50:50.196Z,12.70
2023-05-21T14:53:17.160Z,17.45
2023-05-21T14:55:43.645Z,14.70
2023-05-21T14:58:10.258Z,12.20
2023-05-21T15:00:37.783Z,12.95
2023-05-21T15:03:05.188Z,17.75
2023-05-21T15:05:32.100Z,12.10
2023-05-21T15:07:58.549Z,10.57
2023-05-21T15:10:28.332Z,17.70
2023-05-21T15:15:21.700Z,13.35
2023-05-21T15:17:49.292Z,14.70
2023-05-21T15:20:16.556Z,13.93
2023-05-21T15:22:43.118Z,10.05
2023-05-21T15:25:11.135Z,12.55
2023-05-21T15:27:37.573Z,15.43
2023-05-21T15:30:04.654Z,13.80
2023-05-21T15:32:31.593Z,13.27
2023-05-21T15:35:00.686Z,15.38
2023-05-21T15:37:27.566Z,13.23
2023-05-21T15:39:54.036Z,12.27
2023-05-21T15:42:20.465Z,18.27
2023-05-21T15:44:47.261Z,15.63
2023-05-21T15:47:13.706Z,13.27
2023-05-21T15:49:40.214Z,15.70
2023-05-21T15:52:06.974Z,16.73
2023-05-21T15:54:33.405Z,14.00
2023-05-21T15:56:59.833Z,21.15
2023-05-21T15:59:27.404Z,15.23
2023-05-21T16:01:55.612Z,15.00
2023-05-21T16:04:22.172Z,18.50
2023-05-21T16:06:48.712Z,17.92
2023-05-21T16:09:15.446Z,18.58
2023-05-21T16:11:44.639Z,20.33
2023-05-21T16:14:11.873Z,18.63
2023-05-21T16:16:38.887Z,20.98
2023-05-21T16:19:05.725Z,15.38
2023-05-21T16:21:32.935Z,17.25
2023-05-21T16:23:59.873Z,15.30
2023-05-21T16:26:26.320Z,14.45
2023-05-21T16:28:53.645Z,19.80
2023-05-21T16:31:20.436Z,13.38
2023-05-21T16:33:46.892Z,14.75
2023-05-21T16:36:13.359Z,13.00
2023-05-21T16:38:39.832Z,21.48
2023-05-21T16:41:07.025Z,16.17
2023-05-21T16:43:33.496Z,13.57
2023-05-21T16:45:59.980Z,14.35
2023-05-21T16:48:26.541Z,16.33
2023-05-21T16:50:53.015Z,17.10
2023-05-21T16:53:19.501Z,13.27
2023-05-21T16:55:45.929Z,10.63
2023-05-21T16:58:13.557Z,20.08
2023-05-21T17:00:39.997Z,15.85
2023-05-21T17:03:06.736Z,20.58
2023-05-21T17:05:33.371Z,29.63
2023-05-21T17:07:59.836Z,15.50
2023-05-21T17:10:26.336Z,17.70
2023-05-21T17:12:52.802Z,24.15
2023-05-21T17:15:19.230Z,21.15
2023-05-21T17:17:45.751Z,18.65
2023-05-21T17:20:12.727Z,18.98
2023-05-21T17:22:39.276Z,18.20
2023-05-21T17:25:06.434Z,18.83
2023-05-21T17:27:32.936Z,13.40
2023-05-21T17:29:59.482Z,15.27
2023-05-21T17:32:25.939Z,13.65
2023-05-21T17:34:53.040Z,18.05
2023-05-21T17:37:19.538Z,14.27
2023-05-21T17:39:45.969Z,15.00
2023-05-21T17:42:12.401Z,16.70
2023-05-21T17:44:38.827Z,14.90
2023-05-21T17:47:06.629Z,23.90
2023-05-21T17:49:33.233Z,14.48
2023-05-21T17:52:00.634Z,13.23
2023-05-21T17:54:27.428Z,15.65
2023-05-21T17:56:53.908Z,15.75
2023-05-21T17:59:21.365Z,22.80
2023-05-21T18:01:47.879Z,15.02
2023-05-21T18:04:14.403Z,16.50
2023-05-21T18:06:40.943Z,13.43
2023-05-21T18:09:07.912Z,14.82
2023-05-21T18:11:34.722Z,16.02
2023-05-21T18:14:01.379Z,20.13
2023-05-21T18:16:30.188Z,12.43
2023-05-21T18:18:57.220Z,15.60
2023-05-21T18:21:23.793Z,19.15
2023-05-21T18:23:50.216Z,31.40
2023-05-21T18:26:16.660Z,17.25
2023-05-21T18:28:43.156Z,17.10
2023-05-21T18:31:09.582Z,16.70
2023-05-21T18:33:36.271Z,14.85
2023-05-21T18:36:02.722Z,11.45
2023-05-21T18:38:29.147Z,10.85
2023-05-21T18:40:55.573Z,12.20
2023-05-21T18:43:22.085Z,11.18
2023-05-21T18:45:48.551Z,16.75
2023-05-21T18:48:15.014Z,17.50
2023-05-21T18:50:41.532Z,14.82
2023-05-21T18:53:08.000Z,12.35
2023-05-21T18:55:34.612Z,22.60
2023-05-21T18:58:01.208Z,14.98
2023-05-21T19:00:27.830Z,17.95
2023-05-21T19:02:55.441Z,14.45
2023-05-21T19:05:22.212Z,15.82
2023-05-21T19:07:49.585Z,13.35
2023-05-21T19:10:16.053Z,14.07
2023-05-21T19:12:43.432Z,16.73
2023-05-21T19:15:10.514Z,13.50
2023-05-21T19:17:39.009Z,12.80
2023-05-21T19:20:10.035Z,14.48
2023-05-21T19:22:37.214Z,11.52
2023-05-21T19:25:04.154Z,14.50
2023-05-21T19:27:30.617Z,13.45
2023-05-21T19:29:57.159Z,10.10
2023-05-21T19:32:23.751Z,13.80
2023-05-21T19:34:51.505Z,11.45
2023-05-21T19:37:18.120Z,12.35
2023-05-21T19:39:49.398Z,15.85
2023-05-21T19:42:17.330Z,12.40
2023-05-21T19:44:43.908Z,17.10
2023-05-21T19:47:10.618Z,15.07
2023-05-21T19:49:37.111Z,11.35
2023-05-21T19:52:04.534Z,14.85
2023-05-21T19:54:31.153Z,15.98
2023-05-21T19:56:57.744Z,14.70
2023-05-21T19:59:24.728Z,12.43
2023-05-21T20:01:51.758Z,13.60
2023-05-21T20:04:18.391Z,14.80
2023-05-21T20:06:44.945Z,17.75
2023-05-21T20:09:13.216Z,15.20
2023-05-21T20:11:42.130Z,16.25
2023-05-21T20:14:08.811Z,10.77
2023-05-21T20:16:35.380Z,16.92
2023-05-21T20:19:02.209Z,16.40
2023-05-21T20:21:30.186Z,13.10
2023-05-21T20:23:56.684Z,13.18
2023-05-21T20:26:23.171Z,13.73
2023-05-21T20:28:49.638Z,14.27
2023-05-21T20:31:16.201Z,18.00
2023-05-21T20:33:43.033Z,13.35
2023-05-21T20:36:09.565Z,15.50
2023-05-21T20:38:37.972Z,14.05
2023-05-21T20:41:04.886Z,14.93
2023-05-21T20:43:31.334Z,14.40
2023-05-21T20:46:01.600Z,13.32
2023-05-21T20:48:29.309Z,13.90
2023-05-21T20:50:57.456Z,11.88
2023-05-21T20:53:24.747Z,13.90
2023-05-21T20:55:52.662Z,12.35
2023-05-21T20:58:19.110Z,14.90
2023-05-21T21:00:48.349Z,13.65
2023-05-21T21:03:17.874Z,18.17
2023-05-21T21:05:44.812Z,14.63
2023-05-21T21:08:12.331Z,10.50
2023-05-21T21:10:41.243Z,14.48
2023-05-21T21:13:08.440Z,11.18
2023-05-21T21:15:36.930Z,19.00
2023-05-21T21:18:03.736Z,14.63
2023-05-21T21:20:30.354Z,11.77
2023-05-21T21:22:56.829Z,14.07
2023-05-21T21:25:23.322Z,13.90
2023-05-21T21:27:49.807Z,12.23
2023-05-21T21:30:16.329Z,11.85
2023-05-21T21:32:42.901Z,14.93
2023-05-21T21:35:12.866Z,15.32
2023-05-21T21:37:39.283Z,16.35
2023-05-21T21:40:06.508Z,11.35
2023-05-21T21:42:33.171Z,23.65
2023-05-21T21:44:59.592Z,14.32
2023-05-21T21:47:26.190Z,13.93
2023-05-21T21:49:52.655Z,12.68
2023-05-21T21:52:19.138Z,12.55
2023-05-21T21:54:45.688Z,11.73
2023-05-21T21:57:12.100Z,14.23
2023-05-21T21:59:39.085Z,18.08
2023-05-21T22:02:05.974Z,12.73
2023-05-21T22:04:32.533Z,15.07
2023-05-21T22:06:58.965Z,15.57
2023-05-21T22:09:25.437Z,17.08
2023-05-21T22:11:51.956Z,15.20
2023-05-21T22:14:19.362Z,11.35
2023-05-21T22:16:47.389Z,19.65
2023-05-21T22:19:15.604Z,21.08
2023-05-21T22:21:42.169Z,12.63
2023-05-21T22:24:14.977Z,14.82
2023-05-21T22:26:50.950Z,12.75
2023-05-21T22:29:17.371Z,16.80
2023-05-21T22:31:43.876Z,13.90
2023-05-21T22:34:10.369Z,13.23
2023-05-21T22:36:38.680Z,13.38
2023-05-21T22:39:05.628Z,13.00
2023-05-21T22:41:32.170Z,18.15
2023-05-21T22:43:58.620Z,13.63
2023-05-21T22:46:25.059Z,11.75
2023-05-21T22:48:51.632Z,23.20
2023-05-21T22:51:18.113Z,15.85
2023-05-21T22:53:45.561Z,16.30
2023-05-21T22:56:11.992Z,11.60
2023-05-21T22:58:38.493Z,17.67
2023-05-21T23:01:05.015Z,14.25
2023-05-21T23:03:31.439Z,13.07
2023-05-21T23:05:57.870Z,16.25
2023-05-21T23:08:24.329Z,14.48
2023-05-21T23:10:50.815Z,19.10
2023-05-21T23:13:17.262Z,17.13
2023-05-21T23:15:44.140Z,19.10
2023-05-21T23:18:11.328Z,14.73
2023-05-21T23:20:40.781Z,18.20
2023-05-21T23:23:07.787Z,27.10
2023-05-21T23:25:34.794Z,15.20
2023-05-21T23:28:01.965Z,18.80
2023-05-21T23:30:28.536Z,16.70
2023-05-21T23:32:55.004Z,15.85
2023-05-21T23:35:21.473Z,24.75
2023-05-21T23:37:48.072Z,15.25
2023-05-21T23:40:14.694Z,17.95
2023-05-21T23:42:41.264Z,19.15
2023-05-21T23:45:07.947Z,22.10
2023-05-21T23:47:34.353Z,18.67
2023-05-21T23:50:00.776Z,17.02
2023-05-21T23:52:27.248Z,20.35
2023-05-21T23:54:54.123Z,14.50
2023-05-21T23:57:20.557Z,18.33
2023-05-21T23:59:47.036Z,18.77
